sensor_id;sensor_type;location;lat;lon;timestamp;P1;durP1;ratioP1;P2;durP2;ratioP2
77152;SDS011;66124;51.146;17.072;2023-04-29T00:01:34;7.90;;;5.30;;
77152;SDS011;66124;51.146;17.072;2023-04-29T00:04:04;8.80;;;5.60;;
77152;SDS011;66124;51.146;17.072;2023-04-29T00:06:33;7.60;;;5.00;;
77152;SDS011;66124;51.146;17.072;2023-04-29T00:09:03;9.00;;;5.70;;
77152;SDS011;66124;51.146;17.072;2023-04-29T00:11:32;8.20;;;5.80;;
77152;SDS011;66124;51.146;17.072;2023-04-29T00:14:01;7.10;;;6.00;;
77152;SDS011;66124;51.146;17.072;2023-04-29T00:16:31;8.60;;;5.70;;
77152;SDS011;66124;51.146;17.072;2023-04-29T00:19:00;8.40;;;5.60;;
77152;SDS011;66124;51.146;17.072;2023-04-29T00:21:30;7.50;;;4.60;;
77152;SDS011;66124;51.146;17.072;2023-04-29T00:23:59;9.20;;;5.60;;
77152;SDS011;66124;51.146;17.072;2023-04-29T00:26:29;11.00;;;5.80;;
77152;SDS011;66124;51.146;17.072;2023-04-29T00:28:58;8.10;;;5.30;;
77152;SDS011;66124;51.146;17.072;2023-04-29T00:31:27;9.80;;;5.70;;
77152;SDS011;66124;51.146;17.072;2023-04-29T00:33:57;7.20;;;5.20;;
77152;SDS011;66124;51.146;17.072;2023-04-29T00:36:27;9.30;;;5.80;;
77152;SDS011;66124;51.146;17.072;2023-04-29T00:38:56;9.70;;;6.20;;
77152;SDS011;66124;51.146;17.072;2023-04-29T00:41:26;9.70;;;6.40;;
77152;SDS011;66124;51.146;17.072;2023-04-29T00:43:56;10.90;;;6.20;;
77152;SDS011;66124;51.146;17.072;2023-04-29T00:46:25;8.20;;;4.90;;
77152;SDS011;66124;51.146;17.072;2023-04-29T00:48:55;6.20;;;4.90;;
77152;SDS011;66124;51.146;17.072;2023-04-29T00:59:00;9.80;;;6.30;;
77152;SDS011;66124;51.146;17.072;2023-04-29T01:01:29;11.60;;;7.70;;
77152;SDS011;66124;51.146;17.072;2023-04-29T01:03:59;11.30;;;7.40;;
77152;SDS011;66124;51.146;17.072;2023-04-29T01:06:30;11.50;;;7.40;;
77152;SDS011;66124;51.146;17.072;2023-04-29T01:09:16;12.50;;;8.10;;
77152;SDS011;66124;51.146;17.072;2023-04-29T01:11:54;10.70;;;7.30;;
77152;SDS011;66124;51.146;17.072;2023-04-29T01:14:34;12.80;;;7.30;;
77152;SDS011;66124;51.146;17.072;2023-04-29T01:17:09;13.00;;;8.10;;
77152;SDS011;66124;51.146;17.072;2023-04-29T01:19:45;10.50;;;7.30;;
77152;SDS011;66124;51.146;17.072;2023-04-29T01:22:19;10.90;;;7.50;;
77152;SDS011;66124;51.146;17.072;2023-04-29T01:24:48;12.80;;;7.40;;
77152;SDS011;66124;51.146;17.072;2023-04-29T01:27:21;11.10;;;8.20;;
77152;SDS011;66124;51.146;17.072;2023-04-29T01:29:57;11.60;;;7.40;;
77152;SDS011;66124;51.146;17.072;2023-04-29T01:32:40;10.90;;;6.60;;
77152;SDS011;66124;51.146;17.072;2023-04-29T01:35:20;10.80;;;6.60;;
77152;SDS011;66124;51.146;17.072;2023-04-29T01:37:57;8.70;;;6.50;;
77152;SDS011;66124;51.146;17.072;2023-04-29T01:40:42;11.00;;;6.00;;
77152;SDS011;66124;51.146;17.072;2023-04-29T01:43:14;10.10;;;6.80;;
77152;SDS011;66124;51.146;17.072;2023-04-29T01:45:44;9.50;;;6.50;;
77152;SDS011;66124;51.146;17.072;2023-04-29T01:48:14;10.20;;;6.10;;
77152;SDS011;66124;51.146;17.072;2023-04-29T01:50:44;11.90;;;6.40;;
77152;SDS011;66124;51.146;17.072;2023-04-29T01:53:13;7.30;;;6.00;;
77152;SDS011;66124;51.146;17.072;2023-04-29T01:55:43;10.70;;;6.30;;
77152;SDS011;66124;51.146;17.072;2023-04-29T01:58:12;11.30;;;6.70;;
77152;SDS011;66124;51.146;17.072;2023-04-29T02:00:42;11.40;;;6.80;;
77152;SDS011;66124;51.146;17.072;2023-04-29T02:03:11;9.90;;;6.70;;
77152;SDS011;66124;51.146;17.072;2023-04-29T02:05:41;10.00;;;6.60;;
77152;SDS011;66124;51.146;17.072;2023-04-29T02:08:10;8.10;;;6.00;;
77152;SDS011;66124;51.146;17.072;2023-04-29T02:16:09;11.00;;;7.00;;
77152;SDS011;66124;51.146;17.072;2023-04-29T02:18:38;11.40;;;7.20;;
77152;SDS011;66124;51.146;17.072;2023-04-29T02:21:05;10.70;;;7.20;;
77152;SDS011;66124;51.146;17.072;2023-04-29T02:23:33;9.00;;;6.70;;
77152;SDS011;66124;51.146;17.072;2023-04-29T02:26:01;9.70;;;6.50;;
77152;SDS011;66124;51.146;17.072;2023-04-29T02:28:28;12.10;;;7.40;;
77152;SDS011;66124;51.146;17.072;2023-04-29T02:30:55;9.50;;;6.20;;
77152;SDS011;66124;51.146;17.072;2023-04-29T02:33:23;9.40;;;6.60;;
77152;SDS011;66124;51.146;17.072;2023-04-29T02:35:50;7.70;;;6.30;;
77152;SDS011;66124;51.146;17.072;2023-04-29T02:43:20;11.50;;;6.70;;
77152;SDS011;66124;51.146;17.072;2023-04-29T02:45:49;8.70;;;6.70;;
77152;SDS011;66124;51.146;17.072;2023-04-29T02:48:19;10.90;;;6.50;;
77152;SDS011;66124;51.146;17.072;2023-04-29T02:50:48;8.60;;;6.20;;
77152;SDS011;66124;51.146;17.072;2023-04-29T02:53:17;9.50;;;6.50;;
77152;SDS011;66124;51.146;17.072;2023-04-29T02:55:48;10.00;;;6.10;;
77152;SDS011;66124;51.146;17.072;2023-04-29T02:58:18;9.70;;;6.40;;
77152;SDS011;66124;51.146;17.072;2023-04-29T03:00:47;8.90;;;6.00;;
77152;SDS011;66124;51.146;17.072;2023-04-29T03:03:16;8.80;;;5.90;;
77152;SDS011;66124;51.146;17.072;2023-04-29T03:05:46;10.50;;;5.90;;
77152;SDS011;66124;51.146;17.072;2023-04-29T03:08:15;7.40;;;5.20;;
77152;SDS011;66124;51.146;17.072;2023-04-29T03:10:45;8.70;;;5.90;;
77152;SDS011;66124;51.146;17.072;2023-04-29T03:13:14;8.20;;;5.90;;
77152;SDS011;66124;51.146;17.072;2023-04-29T03:15:44;7.90;;;6.10;;
77152;SDS011;66124;51.146;17.072;2023-04-29T03:18:13;9.20;;;5.90;;
77152;SDS011;66124;51.146;17.072;2023-04-29T03:20:42;9.60;;;5.90;;
77152;SDS011;66124;51.146;17.072;2023-04-29T03:23:12;8.30;;;6.10;;
77152;SDS011;66124;51.146;17.072;2023-04-29T03:25:41;11.80;;;6.30;;
77152;SDS011;66124;51.146;17.072;2023-04-29T03:28:10;9.30;;;5.30;;
77152;SDS011;66124;51.146;17.072;2023-04-29T03:30:40;9.80;;;5.80;;
77152;SDS011;66124;51.146;17.072;2023-04-29T03:33:09;9.10;;;5.50;;
77152;SDS011;66124;51.146;17.072;2023-04-29T03:35:39;8.80;;;5.40;;
77152;SDS011;66124;51.146;17.072;2023-04-29T03:38:08;8.70;;;6.10;;
77152;SDS011;66124;51.146;17.072;2023-04-29T03:40:37;8.40;;;5.60;;
77152;SDS011;66124;51.146;17.072;2023-04-29T03:43:07;11.00;;;5.80;;
77152;SDS011;66124;51.146;17.072;2023-04-29T03:45:36;10.70;;;6.10;;
77152;SDS011;66124;51.146;17.072;2023-04-29T03:48:06;9.20;;;6.00;;
77152;SDS011;66124;51.146;17.072;2023-04-29T03:50:36;4.60;;;3.80;;
77152;SDS011;66124;51.146;17.072;2023-04-29T04:00:40;8.80;;;6.10;;
77152;SDS011;66124;51.146;17.072;2023-04-29T04:03:09;8.20;;;6.20;;
77152;SDS011;66124;51.146;17.072;2023-04-29T04:05:38;9.90;;;5.80;;
77152;SDS011;66124;51.146;17.072;2023-04-29T04:08:08;8.00;;;6.10;;
77152;SDS011;66124;51.146;17.072;2023-04-29T04:10:37;9.00;;;6.40;;
77152;SDS011;66124;51.146;17.072;2023-04-29T04:13:09;12.10;;;6.90;;
77152;SDS011;66124;51.146;17.072;2023-04-29T04:15:39;10.20;;;6.30;;
77152;SDS011;66124;51.146;17.072;2023-04-29T04:18:08;9.70;;;6.30;;
77152;SDS011;66124;51.146;17.072;2023-04-29T04:20:37;10.60;;;5.70;;
77152;SDS011;66124;51.146;17.072;2023-04-29T04:23:07;8.30;;;6.10;;
77152;SDS011;66124;51.146;17.072;2023-04-29T04:25:36;11.30;;;6.10;;
77152;SDS011;66124;51.146;17.072;2023-04-29T04:28:11;5.70;;;4.70;;
77152;SDS011;66124;51.146;17.072;2023-04-29T04:30:40;11.80;;;6.20;;
77152;SDS011;66124;51.146;17.072;2023-04-29T04:33:09;10.70;;;5.80;;
77152;SDS011;66124;51.146;17.072;2023-04-29T04:35:39;11.20;;;6.10;;
77152;SDS011;66124;51.146;17.072;2023-04-29T04:38:08;8.90;;;5.60;;
77152;SDS011;66124;51.146;17.072;2023-04-29T04:40:41;8.40;;;5.80;;
77152;SDS011;66124;51.146;17.072;2023-04-29T04:43:10;8.90;;;5.10;;
77152;SDS011;66124;51.146;17.072;2023-04-29T04:45:40;9.70;;;5.10;;
77152;SDS011;66124;51.146;17.072;2023-04-29T04:48:09;8.00;;;5.00;;
77152;SDS011;66124;51.146;17.072;2023-04-29T04:50:39;8.20;;;5.50;;
77152;SDS011;66124;51.146;17.072;2023-04-29T04:53:08;9.50;;;5.70;;
77152;SDS011;66124;51.146;17.072;2023-04-29T04:55:38;9.10;;;5.50;;
77152;SDS011;66124;51.146;17.072;2023-04-29T04:58:07;7.50;;;5.60;;
77152;SDS011;66124;51.146;17.072;2023-04-29T05:00:36;8.20;;;5.70;;
77152;SDS011;66124;51.146;17.072;2023-04-29T05:03:12;8.50;;;5.70;;
77152;SDS011;66124;51.146;17.072;2023-04-29T05:05:42;7.20;;;5.70;;
77152;SDS011;66124;51.146;17.072;2023-04-29T05:08:11;7.20;;;5.30;;
77152;SDS011;66124;51.146;17.072;2023-04-29T05:20:57;8.50;;;4.90;;
77152;SDS011;66124;51.146;17.072;2023-04-29T05:23:26;7.00;;;5.10;;
77152;SDS011;66124;51.146;17.072;2023-04-29T05:25:56;7.40;;;5.00;;
77152;SDS011;66124;51.146;17.072;2023-04-29T05:28:25;7.70;;;4.90;;
77152;SDS011;66124;51.146;17.072;2023-04-29T05:30:55;7.10;;;5.10;;
77152;SDS011;66124;51.146;17.072;2023-04-29T05:33:26;8.80;;;4.90;;
77152;SDS011;66124;51.146;17.072;2023-04-29T05:35:55;6.90;;;4.70;;
77152;SDS011;66124;51.146;17.072;2023-04-29T05:38:24;7.50;;;5.40;;
77152;SDS011;66124;51.146;17.072;2023-04-29T05:40:54;7.30;;;5.30;;
77152;SDS011;66124;51.146;17.072;2023-04-29T05:43:23;8.50;;;4.80;;
77152;SDS011;66124;51.146;17.072;2023-04-29T05:45:53;7.80;;;5.60;;
77152;SDS011;66124;51.146;17.072;2023-04-29T05:48:22;7.70;;;4.80;;
77152;SDS011;66124;51.146;17.072;2023-04-29T05:50:51;11.00;;;7.20;;
77152;SDS011;66124;51.146;17.072;2023-04-29T05:53:21;11.90;;;7.90;;
77152;SDS011;66124;51.146;17.072;2023-04-29T05:55:50;7.70;;;5.70;;
77152;SDS011;66124;51.146;17.072;2023-04-29T05:58:20;7.60;;;5.10;;
77152;SDS011;66124;51.146;17.072;2023-04-29T06:00:49;7.80;;;5.00;;
77152;SDS011;66124;51.146;17.072;2023-04-29T06:03:19;7.20;;;5.40;;
77152;SDS011;66124;51.146;17.072;2023-04-29T06:05:48;7.70;;;5.00;;
77152;SDS011;66124;51.146;17.072;2023-04-29T06:08:18;7.60;;;5.10;;
77152;SDS011;66124;51.146;17.072;2023-04-29T06:10:47;7.30;;;4.40;;
77152;SDS011;66124;51.146;17.072;2023-04-29T06:13:17;8.70;;;5.00;;
77152;SDS011;66124;51.146;17.072;2023-04-29T06:15:46;9.70;;;5.10;;
77152;SDS011;66124;51.146;17.072;2023-04-29T06:18:16;6.80;;;5.70;;
77152;SDS011;66124;51.146;17.072;2023-04-29T06:20:45;7.10;;;5.20;;
77152;SDS011;66124;51.146;17.072;2023-04-29T06:23:14;7.60;;;5.30;;
77152;SDS011;66124;51.146;17.072;2023-04-29T06:25:44;6.80;;;4.80;;
77152;SDS011;66124;51.146;17.072;2023-04-29T06:28:13;7.90;;;5.00;;
77152;SDS011;66124;51.146;17.072;2023-04-29T06:30:43;7.70;;;5.20;;
77152;SDS011;66124;51.146;17.072;2023-04-29T06:40:47;8.00;;;5.30;;
77152;SDS011;66124;51.146;17.072;2023-04-29T06:43:17;8.80;;;6.00;;
77152;SDS011;66124;51.146;17.072;2023-04-29T06:45:46;8.00;;;5.90;;
77152;SDS011;66124;51.146;17.072;2023-04-29T06:48:15;8.10;;;6.20;;
77152;SDS011;66124;51.146;17.072;2023-04-29T06:50:51;7.90;;;5.30;;
77152;SDS011;66124;51.146;17.072;2023-04-29T06:53:22;9.70;;;5.90;;
77152;SDS011;66124;51.146;17.072;2023-04-29T06:55:51;8.10;;;5.60;;
77152;SDS011;66124;51.146;17.072;2023-04-29T06:58:21;9.40;;;6.00;;
77152;SDS011;66124;51.146;17.072;2023-04-29T07:00:50;7.30;;;5.10;;
77152;SDS011;66124;51.146;17.072;2023-04-29T07:03:19;8.60;;;5.00;;
77152;SDS011;66124;51.146;17.072;2023-04-29T07:05:49;8.20;;;5.30;;
77152;SDS011;66124;51.146;17.072;2023-04-29T07:08:18;8.30;;;6.10;;
77152;SDS011;66124;51.146;17.072;2023-04-29T07:10:53;8.60;;;5.30;;
77152;SDS011;66124;51.146;17.072;2023-04-29T07:13:23;8.40;;;5.40;;
77152;SDS011;66124;51.146;17.072;2023-04-29T07:15:53;8.00;;;5.80;;
77152;SDS011;66124;51.146;17.072;2023-04-29T07:18:22;9.60;;;5.90;;
77152;SDS011;66124;51.146;17.072;2023-04-29T07:20:52;7.40;;;5.90;;
77152;SDS011;66124;51.146;17.072;2023-04-29T07:23:21;8.80;;;6.00;;
77152;SDS011;66124;51.146;17.072;2023-04-29T07:25:50;10.00;;;6.90;;
77152;SDS011;66124;51.146;17.072;2023-04-29T07:28:20;10.10;;;6.70;;
77152;SDS011;66124;51.146;17.072;2023-04-29T07:30:49;9.30;;;7.40;;
77152;SDS011;66124;51.146;17.072;2023-04-29T07:33:18;10.30;;;6.50;;
77152;SDS011;66124;51.146;17.072;2023-04-29T07:35:48;9.60;;;6.50;;
77152;SDS011;66124;51.146;17.072;2023-04-29T07:38:17;10.70;;;6.80;;
77152;SDS011;66124;51.146;17.072;2023-04-29T07:40:47;10.60;;;7.40;;
77152;SDS011;66124;51.146;17.072;2023-04-29T07:43:16;10.10;;;6.60;;
77152;SDS011;66124;51.146;17.072;2023-04-29T07:45:45;10.40;;;6.90;;
77152;SDS011;66124;51.146;17.072;2023-04-29T07:48:15;11.40;;;7.30;;
77152;SDS011;66124;51.146;17.072;2023-04-29T07:50:44;9.50;;;6.90;;
77152;SDS011;66124;51.146;17.072;2023-04-29T08:00:04;13.90;;;10.20;;
77152;SDS011;66124;51.146;17.072;2023-04-29T08:02:33;13.20;;;9.50;;
77152;SDS011;66124;51.146;17.072;2023-04-29T08:05:01;12.70;;;8.90;;
77152;SDS011;66124;51.146;17.072;2023-04-29T08:07:28;12.90;;;8.30;;
77152;SDS011;66124;51.146;17.072;2023-04-29T08:09:55;12.90;;;8.70;;
77152;SDS011;66124;51.146;17.072;2023-04-29T08:12:23;10.90;;;7.60;;
77152;SDS011;66124;51.146;17.072;2023-04-29T08:14:51;11.70;;;8.40;;
77152;SDS011;66124;51.146;17.072;2023-04-29T08:17:18;11.50;;;8.50;;
77152;SDS011;66124;51.146;17.072;2023-04-29T08:29:46;12.40;;;8.10;;
77152;SDS011;66124;51.146;17.072;2023-04-29T08:32:16;11.70;;;9.10;;
77152;SDS011;66124;51.146;17.072;2023-04-29T08:34:45;11.10;;;7.70;;
77152;SDS011;66124;51.146;17.072;2023-04-29T08:37:16;13.60;;;8.60;;
77152;SDS011;66124;51.146;17.072;2023-04-29T08:39:45;13.10;;;9.30;;
77152;SDS011;66124;51.146;17.072;2023-04-29T08:42:15;12.80;;;8.30;;
77152;SDS011;66124;51.146;17.072;2023-04-29T08:44:55;13.50;;;8.80;;
77152;SDS011;66124;51.146;17.072;2023-04-29T08:47:26;11.80;;;7.90;;
77152;SDS011;66124;51.146;17.072;2023-04-29T08:49:56;11.30;;;7.60;;
77152;SDS011;66124;51.146;17.072;2023-04-29T08:52:28;11.50;;;8.00;;
77152;SDS011;66124;51.146;17.072;2023-04-29T08:54:58;9.70;;;7.40;;
77152;SDS011;66124;51.146;17.072;2023-04-29T08:57:28;11.20;;;8.30;;
77152;SDS011;66124;51.146;17.072;2023-04-29T09:00:02;10.10;;;7.10;;
77152;SDS011;66124;51.146;17.072;2023-04-29T09:02:33;10.70;;;7.50;;
77152;SDS011;66124;51.146;17.072;2023-04-29T09:05:09;11.90;;;7.00;;
77152;SDS011;66124;51.146;17.072;2023-04-29T09:07:39;12.20;;;6.70;;
77152;SDS011;66124;51.146;17.072;2023-04-29T09:10:11;7.80;;;5.70;;
77152;SDS011;66124;51.146;17.072;2023-04-29T09:12:41;11.90;;;6.30;;
77152;SDS011;66124;51.146;17.072;2023-04-29T09:15:11;9.30;;;6.70;;
77152;SDS011;66124;51.146;17.072;2023-04-29T09:17:41;8.40;;;6.40;;
77152;SDS011;66124;51.146;17.072;2023-04-29T09:22:58;8.90;;;6.10;;
77152;SDS011;66124;51.146;17.072;2023-04-29T09:25:29;9.60;;;6.00;;
77152;SDS011;66124;51.146;17.072;2023-04-29T09:27:58;7.90;;;5.80;;
77152;SDS011;66124;51.146;17.072;2023-04-29T09:30:45;9.00;;;6.20;;
77152;SDS011;66124;51.146;17.072;2023-04-29T09:33:15;10.10;;;5.70;;
77152;SDS011;66124;51.146;17.072;2023-04-29T09:35:44;10.10;;;6.20;;
77152;SDS011;66124;51.146;17.072;2023-04-29T09:38:14;9.40;;;6.60;;
77152;SDS011;66124;51.146;17.072;2023-04-29T09:45:54;7.40;;;5.40;;
77152;SDS011;66124;51.146;17.072;2023-04-29T09:48:24;7.80;;;5.60;;
77152;SDS011;66124;51.146;17.072;2023-04-29T09:50:59;9.20;;;6.60;;
77152;SDS011;66124;51.146;17.072;2023-04-29T09:53:29;8.40;;;5.50;;
77152;SDS011;66124;51.146;17.072;2023-04-29T09:56:00;6.70;;;5.40;;
77152;SDS011;66124;51.146;17.072;2023-04-29T09:58:30;7.50;;;5.30;;
77152;SDS011;66124;51.146;17.072;2023-04-29T10:01:00;6.70;;;5.50;;
77152;SDS011;66124;51.146;17.072;2023-04-29T10:03:32;7.00;;;4.90;;
77152;SDS011;66124;51.146;17.072;2023-04-29T10:06:03;4.90;;;4.10;;
77152;SDS011;66124;51.146;17.072;2023-04-29T10:08:34;5.30;;;4.00;;
77152;SDS011;66124;51.146;17.072;2023-04-29T10:11:04;5.50;;;4.60;;
77152;SDS011;66124;51.146;17.072;2023-04-29T10:13:34;5.10;;;4.30;;
77152;SDS011;66124;51.146;17.072;2023-04-29T10:16:07;5.50;;;3.80;;
77152;SDS011;66124;51.146;17.072;2023-04-29T10:21:15;6.40;;;3.30;;
77152;SDS011;66124;51.146;17.072;2023-04-29T10:23:47;4.80;;;3.20;;
77152;SDS011;66124;51.146;17.072;2023-04-29T10:28:47;4.30;;;3.30;;
77152;SDS011;66124;51.146;17.072;2023-04-29T10:31:21;4.30;;;3.20;;
77152;SDS011;66124;51.146;17.072;2023-04-29T10:33:55;5.00;;;3.60;;
77152;SDS011;66124;51.146;17.072;2023-04-29T10:36:25;5.00;;;3.40;;
77152;SDS011;66124;51.146;17.072;2023-04-29T10:38:57;5.70;;;3.30;;
77152;SDS011;66124;51.146;17.072;2023-04-29T10:41:30;5.50;;;3.50;;
77152;SDS011;66124;51.146;17.072;2023-04-29T10:44:04;5.20;;;3.70;;
77152;SDS011;66124;51.146;17.072;2023-04-29T10:46:33;3.50;;;2.90;;
77152;SDS011;66124;51.146;17.072;2023-04-29T10:49:03;5.10;;;3.20;;
77152;SDS011;66124;51.146;17.072;2023-04-29T10:51:33;4.30;;;2.90;;
77152;SDS011;66124;51.146;17.072;2023-04-29T10:54:07;3.40;;;3.00;;
77152;SDS011;66124;51.146;17.072;2023-04-29T11:05:28;4.40;;;3.70;;
77152;SDS011;66124;51.146;17.072;2023-04-29T11:08:10;4.70;;;3.80;;
77152;SDS011;66124;51.146;17.072;2023-04-29T11:10:41;3.90;;;3.40;;
77152;SDS011;66124;51.146;17.072;2023-04-29T11:13:24;3.50;;;3.20;;
77152;SDS011;66124;51.146;17.072;2023-04-29T11:16:02;4.80;;;2.70;;
77152;SDS011;66124;51.146;17.072;2023-04-29T11:18:33;4.30;;;3.00;;
77152;SDS011;66124;51.146;17.072;2023-04-29T11:21:12;2.80;;;2.50;;
77152;SDS011;66124;51.146;17.072;2023-04-29T11:23:42;3.10;;;2.50;;
77152;SDS011;66124;51.146;17.072;2023-04-29T11:26:11;2.40;;;1.70;;
77152;SDS011;66124;51.146;17.072;2023-04-29T11:28:41;2.80;;;1.70;;
77152;SDS011;66124;51.146;17.072;2023-04-29T11:31:12;3.20;;;2.80;;
77152;SDS011;66124;51.146;17.072;2023-04-29T11:33:41;3.30;;;2.50;;
77152;SDS011;66124;51.146;17.072;2023-04-29T11:36:11;2.60;;;2.40;;
77152;SDS011;66124;51.146;17.072;2023-04-29T11:38:40;3.20;;;2.40;;
77152;SDS011;66124;51.146;17.072;2023-04-29T11:41:11;2.70;;;2.20;;
77152;SDS011;66124;51.146;17.072;2023-04-29T11:43:40;2.90;;;2.30;;
77152;SDS011;66124;51.146;17.072;2023-04-29T11:46:12;3.50;;;2.20;;
77152;SDS011;66124;51.146;17.072;2023-04-29T11:48:48;2.60;;;2.10;;
77152;SDS011;66124;51.146;17.072;2023-04-29T11:51:17;2.10;;;1.90;;
77152;SDS011;66124;51.146;17.072;2023-04-29T11:53:47;2.90;;;2.60;;
77152;SDS011;66124;51.146;17.072;2023-04-29T11:56:18;3.50;;;2.40;;
77152;SDS011;66124;51.146;17.072;2023-04-29T11:58:49;3.10;;;2.30;;
77152;SDS011;66124;51.146;17.072;2023-04-29T12:01:22;3.60;;;2.10;;
77152;SDS011;66124;51.146;17.072;2023-04-29T12:03:57;3.80;;;2.30;;
77152;SDS011;66124;51.146;17.072;2023-04-29T12:06:27;2.50;;;2.20;;
77152;SDS011;66124;51.146;17.072;2023-04-29T12:08:58;2.50;;;2.20;;
77152;SDS011;66124;51.146;17.072;2023-04-29T12:11:28;3.00;;;2.10;;
77152;SDS011;66124;51.146;17.072;2023-04-29T12:13:57;3.20;;;2.70;;
77152;SDS011;66124;51.146;17.072;2023-04-29T12:24:51;2.90;;;2.10;;
77152;SDS011;66124;51.146;17.072;2023-04-29T12:27:21;2.90;;;2.30;;
77152;SDS011;66124;51.146;17.072;2023-04-29T12:29:51;3.50;;;2.90;;
77152;SDS011;66124;51.146;17.072;2023-04-29T12:32:22;4.70;;;3.30;;
77152;SDS011;66124;51.146;17.072;2023-04-29T12:34:52;3.30;;;3.00;;
77152;SDS011;66124;51.146;17.072;2023-04-29T12:37:21;4.10;;;2.80;;
77152;SDS011;66124;51.146;17.072;2023-04-29T12:39:51;3.30;;;2.90;;
77152;SDS011;66124;51.146;17.072;2023-04-29T12:44:50;3.80;;;3.30;;
77152;SDS011;66124;51.146;17.072;2023-04-29T12:47:20;4.60;;;3.30;;
77152;SDS011;66124;51.146;17.072;2023-04-29T12:49:49;3.30;;;2.90;;
77152;SDS011;66124;51.146;17.072;2023-04-29T12:52:18;3.80;;;3.40;;
77152;SDS011;66124;51.146;17.072;2023-04-29T12:54:48;4.60;;;3.80;;
77152;SDS011;66124;51.146;17.072;2023-04-29T12:57:17;4.00;;;3.60;;
77152;SDS011;66124;51.146;17.072;2023-04-29T12:59:46;3.70;;;3.30;;
77152;SDS011;66124;51.146;17.072;2023-04-29T13:02:16;5.00;;;4.30;;
77152;SDS011;66124;51.146;17.072;2023-04-29T13:04:45;4.30;;;3.40;;
77152;SDS011;66124;51.146;17.072;2023-04-29T13:07:15;3.30;;;3.00;;
77152;SDS011;66124;51.146;17.072;2023-04-29T13:09:44;3.80;;;3.50;;
77152;SDS011;66124;51.146;17.072;2023-04-29T13:12:13;3.20;;;2.80;;
77152;SDS011;66124;51.146;17.072;2023-04-29T13:14:43;3.30;;;3.00;;
77152;SDS011;66124;51.146;17.072;2023-04-29T13:17:12;3.00;;;2.70;;
77152;SDS011;66124;51.146;17.072;2023-04-29T13:19:42;4.40;;;3.90;;
77152;SDS011;66124;51.146;17.072;2023-04-29T13:22:12;3.90;;;3.30;;
77152;SDS011;66124;51.146;17.072;2023-04-29T13:24:41;3.80;;;2.90;;
77152;SDS011;66124;51.146;17.072;2023-04-29T13:27:10;2.50;;;2.30;;
77152;SDS011;66124;51.146;17.072;2023-04-29T13:29:40;2.20;;;2.00;;
77152;SDS011;66124;51.146;17.072;2023-04-29T13:32:09;2.20;;;2.00;;
77152;SDS011;66124;51.146;17.072;2023-04-29T13:34:39;2.20;;;1.90;;
77152;SDS011;66124;51.146;17.072;2023-04-29T13:45:59;1.90;;;1.70;;
77152;SDS011;66124;51.146;17.072;2023-04-29T13:48:28;1.80;;;1.60;;
77152;SDS011;66124;51.146;17.072;2023-04-29T13:50:58;1.60;;;1.30;;
77152;SDS011;66124;51.146;17.072;2023-04-29T13:53:27;2.00;;;1.40;;
77152;SDS011;66124;51.146;17.072;2023-04-29T13:55:57;2.10;;;1.60;;
77152;SDS011;66124;51.146;17.072;2023-04-29T13:58:27;2.10;;;1.60;;
77152;SDS011;66124;51.146;17.072;2023-04-29T14:00:56;2.10;;;1.50;;
77152;SDS011;66124;51.146;17.072;2023-04-29T14:03:26;2.20;;;1.50;;
77152;SDS011;66124;51.146;17.072;2023-04-29T14:05:55;2.00;;;1.70;;
77152;SDS011;66124;51.146;17.072;2023-04-29T14:08:25;2.10;;;1.90;;
77152;SDS011;66124;51.146;17.072;2023-04-29T14:10:54;1.90;;;1.80;;
77152;SDS011;66124;51.146;17.072;2023-04-29T14:13:23;1.70;;;1.60;;
77152;SDS011;66124;51.146;17.072;2023-04-29T14:15:53;2.60;;;1.80;;
77152;SDS011;66124;51.146;17.072;2023-04-29T14:18:22;2.00;;;1.40;;
77152;SDS011;66124;51.146;17.072;2023-04-29T14:20:52;2.70;;;1.80;;
77152;SDS011;66124;51.146;17.072;2023-04-29T14:23:21;2.30;;;1.70;;
77152;SDS011;66124;51.146;17.072;2023-04-29T14:25:51;2.00;;;1.80;;
77152;SDS011;66124;51.146;17.072;2023-04-29T14:28:20;2.00;;;1.70;;
77152;SDS011;66124;51.146;17.072;2023-04-29T14:30:49;2.50;;;1.80;;
77152;SDS011;66124;51.146;17.072;2023-04-29T14:33:19;2.20;;;1.90;;
77152;SDS011;66124;51.146;17.072;2023-04-29T14:35:48;2.70;;;1.60;;
77152;SDS011;66124;51.146;17.072;2023-04-29T14:38:17;3.00;;;2.10;;
77152;SDS011;66124;51.146;17.072;2023-04-29T14:40:47;2.60;;;2.20;;
77152;SDS011;66124;51.146;17.072;2023-04-29T14:43:16;3.70;;;2.00;;
77152;SDS011;66124;51.146;17.072;2023-04-29T14:45:46;2.20;;;1.90;;
77152;SDS011;66124;51.146;17.072;2023-04-29T14:48:15;2.20;;;2.00;;
77152;SDS011;66124;51.146;17.072;2023-04-29T14:50:45;2.40;;;2.20;;
77152;SDS011;66124;51.146;17.072;2023-04-29T14:53:14;2.50;;;2.30;;
77152;SDS011;66124;51.146;17.072;2023-04-29T15:05:47;3.60;;;3.10;;
77152;SDS011;66124;51.146;17.072;2023-04-29T15:08:17;3.00;;;2.60;;
77152;SDS011;66124;51.146;17.072;2023-04-29T15:10:47;3.80;;;1.70;;
77152;SDS011;66124;51.146;17.072;2023-04-29T15:13:16;2.60;;;1.60;;
77152;SDS011;66124;51.146;17.072;2023-04-29T15:15:45;2.30;;;1.80;;
77152;SDS011;66124;51.146;17.072;2023-04-29T15:18:15;2.30;;;2.10;;
77152;SDS011;66124;51.146;17.072;2023-04-29T15:20:45;2.70;;;2.00;;
77152;SDS011;66124;51.146;17.072;2023-04-29T15:23:14;2.80;;;2.00;;
77152;SDS011;66124;51.146;17.072;2023-04-29T15:25:44;4.40;;;2.20;;
77152;SDS011;66124;51.146;17.072;2023-04-29T15:28:13;4.20;;;2.70;;
77152;SDS011;66124;51.146;17.072;2023-04-29T15:30:42;4.10;;;2.90;;
77152;SDS011;66124;51.146;17.072;2023-04-29T15:33:13;4.70;;;3.50;;
77152;SDS011;66124;51.146;17.072;2023-04-29T15:35:42;6.10;;;3.60;;
77152;SDS011;66124;51.146;17.072;2023-04-29T15:38:11;5.40;;;3.70;;
77152;SDS011;66124;51.146;17.072;2023-04-29T15:40:41;5.60;;;3.80;;
77152;SDS011;66124;51.146;17.072;2023-04-29T15:43:10;6.00;;;3.80;;
77152;SDS011;66124;51.146;17.072;2023-04-29T15:45:40;6.00;;;4.10;;
77152;SDS011;66124;51.146;17.072;2023-04-29T15:48:09;7.20;;;4.40;;
77152;SDS011;66124;51.146;17.072;2023-04-29T15:50:38;6.80;;;4.00;;
77152;SDS011;66124;51.146;17.072;2023-04-29T15:53:08;5.80;;;3.90;;
77152;SDS011;66124;51.146;17.072;2023-04-29T15:55:37;6.30;;;4.30;;
77152;SDS011;66124;51.146;17.072;2023-04-29T15:58:07;5.90;;;4.20;;
77152;SDS011;66124;51.146;17.072;2023-04-29T16:00:36;9.30;;;5.10;;
77152;SDS011;66124;51.146;17.072;2023-04-29T16:03:05;7.90;;;4.90;;
77152;SDS011;66124;51.146;17.072;2023-04-29T16:05:35;8.30;;;5.00;;
77152;SDS011;66124;51.146;17.072;2023-04-29T16:08:04;7.60;;;4.30;;
77152;SDS011;66124;51.146;17.072;2023-04-29T16:10:34;7.30;;;4.20;;
77152;SDS011;66124;51.146;17.072;2023-04-29T16:13:03;6.10;;;4.20;;
77152;SDS011;66124;51.146;17.072;2023-04-29T16:25:36;6.20;;;4.50;;
77152;SDS011;66124;51.146;17.072;2023-04-29T16:28:06;7.60;;;4.90;;
77152;SDS011;66124;51.146;17.072;2023-04-29T16:30:35;7.70;;;4.90;;
77152;SDS011;66124;51.146;17.072;2023-04-29T16:33:05;7.40;;;5.20;;
77152;SDS011;66124;51.146;17.072;2023-04-29T16:35:34;7.90;;;4.90;;
77152;SDS011;66124;51.146;17.072;2023-04-29T16:38:06;7.40;;;5.30;;
77152;SDS011;66124;51.146;17.072;2023-04-29T16:40:35;8.00;;;5.30;;
77152;SDS011;66124;51.146;17.072;2023-04-29T16:43:04;6.90;;;4.80;;
77152;SDS011;66124;51.146;17.072;2023-04-29T16:45:34;9.70;;;6.10;;
77152;SDS011;66124;51.146;17.072;2023-04-29T16:48:03;8.50;;;5.30;;
77152;SDS011;66124;51.146;17.072;2023-04-29T16:50:33;7.70;;;5.90;;